Time;durP1;ratioP1;P1;durP2;ratioP2;P2;SDS_P1;SDS_P2;PMS_P1;PMS_P2;Temp;Humidity;BMP_temperature;BMP_pressure;BME280_temperature;BME280_humidity;BME280_pressure;Samples;Min_cycle;Max_cycle;Signal;HPM_P1;HPM_P2
2021/01/17 00:00:29;;;;;;;74.47;27.77;;;;;;;;;;4377604;32;20175;-73
2021/01/17 00:02:56;;;;;;;82.80;30.13;;;;;;;;;;4400540;32;20172;-73
2021/01/17 00:05:30;;;;;;;77.53;29.93;;;;;;;;;;4407052;32;20142;-73
2021/01/17 00:07:56;;;;;;;74.23;29.57;;;;;;;;;;4407620;32;20138;-73
2021/01/17 00:10:23;;;;;;;68.87;28.63;;;;;;;;;;4406471;32;20590;-72
2021/01/17 00:13:01;;;;;;;66.70;28.73;;;;;;;;;;4406716;32;20203;-73
2021/01/17 00:15:26;;;;;;;72.63;28.13;;;;;;;;;;4394506;32;20154;-72
2021/01/17 00:18:02;;;;;;;;;;;;;;;;;;;;;
2021/01/17 00:20:41;;;;;;;81.33;30.10;;;;;;;;;;4385225;32;20178;-73
2021/01/17 00:23:27;;;;;;;78.13;29.73;;;;;;;;;;4391348;32;20130;-72
2021/01/17 00:29:20;;;;;;;70.97;27.83;;;;;;;;;;4392076;32;20153;-74
2021/01/17 00:31:55;;;;;;;;;;;;;;;;;;;;;
2021/01/17 00:34:23;;;;;;;70.97;28.20;;;;;;;;;;4386568;32;20479;-73
2021/01/17 00:52:01;;;;;;;80.43;29.87;;;;;;;;;;4343368;33;20166;-72
2021/01/17 00:54:55;;;;;;;;;;;;;;;;;;;;;
2021/01/17 01:06:34;;;;;;;85.40;30.53;;;;;;;;;;4271379;33;20148;-73
2021/01/17 01:12:21;;;;;;;;;;;;;;;;;;;;;
2021/01/17 01:18:00;;;;;;;64.30;27.03;;;;;;;;;;4256854;33;20176;-72
2021/01/17 01:20:25;;;;;;;69.97;28.57;;;;;;;;;;4257927;33;20145;-72
2021/01/17 01:23:21;;;;;;;74.77;30.43;;;;;;;;;;4296599;33;20201;-72
2021/01/17 01:29:00;;;;;;;76.23;30.67;;;;;;;;;;4390055;32;20185;-73
2021/01/17 01:31:35;;;;;;;70.00;27.70;;;;;;;;;;4391540;32;20237;-72
2021/01/17 01:34:01;;;;;;;67.70;29.17;;;;;;;;;;4405921;32;20191;-72
2021/01/17 01:43:08;;;;;;;77.17;29.50;;;;;;;;;;4322039;33;20218;-73
2021/01/17 01:45:35;;;;;;;68.17;28.87;;;;;;;;;;4328902;33;20215;-73
2021/01/17 01:48:02;;;;;;;72.10;28.53;;;;;;;;;;4328479;33;20159;-73
2021/01/17 01:50:30;;;;;;;67.37;28.30;;;;;;;;;;4351907;32;20215;-73
2021/01/17 01:53:03;;;;;;;68.23;27.57;;;;;;;;;;4391590;32;20219;-72
2021/01/17 02:04:37;;;;;;;74.97;29.13;;;;;;;;;;4343338;33;20150;-73
2021/01/17 02:07:30;;;;;;;71.27;27.70;;;;;;;;;;4398363;32;20230;-72
2021/01/17 02:10:27;;;;;;;66.97;29.03;;;;;;;;;;4391184;32;20166;-72
2021/01/17 02:12:58;;;;;;;69.80;28.07;;;;;;;;;;4405607;32;20142;-72
2021/01/17 02:15:26;;;;;;;73.90;28.63;;;;;;;;;;4405333;32;20220;-71
2021/01/17 02:17:52;;;;;;;72.33;27.60;;;;;;;;;;4404751;32;20644;-71
2021/01/17 02:20:20;;;;;;;77.03;30.03;;;;;;;;;;4405323;32;20188;-71
2021/01/17 02:22:48;;;;;;;80.80;29.43;;;;;;;;;;4405041;32;20150;-72
2021/01/17 02:25:16;;;;;;;75.90;28.53;;;;;;;;;;4391291;32;20270;-72
2021/01/17 02:27:51;;;;;;;74.53;28.80;;;;;;;;;;4391076;32;20229;-72
2021/01/17 02:30:20;;;;;;;71.73;29.70;;;;;;;;;;4405203;32;20138;-72
2021/01/17 02:35:58;;;;;;;85.67;29.73;;;;;;;;;;4371433;32;20158;-72
2021/01/17 02:41:27;;;;;;;67.53;28.27;;;;;;;;;;4328516;33;20553;-72
2021/01/17 02:43:53;;;;;;;81.00;30.60;;;;;;;;;;4386168;32;20561;-72
2021/01/17 02:46:27;;;;;;;72.83;30.40;;;;;;;;;;4389715;32;20169;-71
2021/01/17 02:49:02;;;;;;;;;;;;;;;;;;;;;
2021/01/17 02:51:52;;;;;;;86.47;31.60;;;;;;;;;;4374409;32;20256;-71
2021/01/17 02:54:48;;;;;;;73.20;31.07;;;;;;;;;;4390118;32;20175;-72
2021/01/17 02:57:15;;;;;;;76.73;29.33;;;;;;;;;;4390262;32;20281;-72
2021/01/17 03:00:01;;;;;;;76.00;30.23;;;;;;;;;;4379445;32;20162;-72
2021/01/17 03:02:32;;;;;;;72.60;29.67;;;;;;;;;;4392426;32;20135;-72
2021/01/17 03:05:05;;;;;;;81.40;31.97;;;;;;;;;;4393629;32;20177;-72
2021/01/17 03:07:31;;;;;;;75.57;29.37;;;;;;;;;;4392728;32;20212;-71
2021/01/17 03:09:59;;;;;;;81.13;31.57;;;;;;;;;;4379199;32;20177;-71
2021/01/17 03:12:24;;;;;;;78.37;30.07;;;;;;;;;;4392028;32;20143;-71
2021/01/17 03:15:06;;;;;;;71.17;28.63;;;;;;;;;;4379968;32;20237;-71
2021/01/17 03:17:34;;;;;;;72.70;30.37;;;;;;;;;;4362861;32;20249;-72
2021/01/17 03:23:26;;;;;;;72.13;30.13;;;;;;;;;;4353349;32;20194;-71
2021/01/17 03:25:52;;;;;;;79.93;30.13;;;;;;;;;;4377004;32;20139;-72
2021/01/17 03:28:17;;;;;;;85.93;31.30;;;;;;;;;;4376695;32;20465;-72
2021/01/17 03:30:45;;;;;;;72.10;30.37;;;;;;;;;;4376942;32;20228;-72
2021/01/17 03:33:10;;;;;;;69.60;30.53;;;;;;;;;;4392198;32;20154;-72
2021/01/17 03:35:46;;;;;;;64.73;28.60;;;;;;;;;;4378232;32;20166;-71
2021/01/17 03:38:20;;;;;;;73.20;29.30;;;;;;;;;;4377861;32;20614;-71
2021/01/17 03:40:48;;;;;;;72.70;29.50;;;;;;;;;;4392260;32;20138;-72
2021/01/17 03:43:13;;;;;;;70.90;28.90;;;;;;;;;;4391496;32;20237;-72
2021/01/17 03:45:38;;;;;;;78.27;31.50;;;;;;;;;;4391703;32;20138;-72
2021/01/17 03:48:04;;;;;;;74.70;32.27;;;;;;;;;;4392370;32;20479;-72
2021/01/17 03:50:29;;;;;;;79.80;31.90;;;;;;;;;;4391290;32;20597;-72
2021/01/17 03:52:54;;;;;;;75.97;30.70;;;;;;;;;;4392200;32;20131;-72
2021/01/17 03:55:30;;;;;;;;;;;;;;;;;;;;;
2021/01/17 03:57:55;;;;;;;66.80;28.67;;;;;;;;;;4376284;32;20165;-71
2021/01/17 04:00:21;;;;;;;64.67;27.43;;;;;;;;;;4391591;32;20570;-72
2021/01/17 04:02:46;;;;;;;80.67;30.50;;;;;;;;;;4377043;32;20480;-71
2021/01/17 04:08:16;;;;;;;63.20;27.23;;;;;;;;;;4388646;32;20616;-72
2021/01/17 04:10:41;;;;;;;60.47;27.50;;;;;;;;;;4392131;32;20138;-72
2021/01/17 04:16:25;;;;;;;55.80;25.97;;;;;;;;;;4392193;32;20551;-72
2021/01/17 04:18:51;;;;;;;64.20;26.50;;;;;;;;;;4391276;32;20137;-72
2021/01/17 04:24:21;;;;;;;71.03;29.17;;;;;;;;;;4344070;33;20193;-72
2021/01/17 04:26:47;;;;;;;59.93;26.33;;;;;;;;;;4389461;32;20143;-72
2021/01/17 04:29:14;;;;;;;63.43;25.97;;;;;;;;;;4391039;32;20496;-72
2021/01/17 04:31:40;;;;;;;54.77;25.63;;;;;;;;;;4390616;32;20225;-72
2021/01/17 04:34:09;;;;;;;60.87;25.97;;;;;;;;;;4390463;32;20139;-72
2021/01/17 04:36:34;;;;;;;60.83;26.07;;;;;;;;;;4394926;32;20554;-72
2021/01/17 04:39:09;;;;;;;55.90;24.00;;;;;;;;;;4406735;32;20142;-72
2021/01/17 04:41:34;;;;;;;58.10;23.03;;;;;;;;;;4407136;32;20172;-72
2021/01/17 04:44:12;;;;;;;46.90;20.63;;;;;;;;;;4406088;32;20450;-71
2021/01/17 04:46:42;;;;;;;46.70;21.47;;;;;;;;;;4392639;32;20196;-72
2021/01/17 04:49:08;;;;;;;50.97;21.00;;;;;;;;;;4392448;32;20223;-72
2021/01/17 04:51:34;;;;;;;42.63;17.23;;;;;;;;;;4405550;32;20640;-72
2021/01/17 04:54:19;;;;;;;46.27;18.67;;;;;;;;;;4392283;32;20200;-72
2021/01/17 04:57:05;;;;;;;37.27;15.67;;;;;;;;;;4406464;32;20195;-72
2021/01/17 04:59:44;;;;;;;48.37;14.93;;;;;;;;;;4405266;32;20545;-72
2021/01/17 05:02:10;;;;;;;47.70;13.90;;;;;;;;;;4395398;32;20171;-72
2021/01/17 05:04:35;;;;;;;45.93;14.00;;;;;;;;;;4405007;32;20146;-72
2021/01/17 05:07:07;;;;;;;42.50;12.80;;;;;;;;;;4405209;32;20189;-72
2021/01/17 05:09:40;;;;;;;41.27;12.13;;;;;;;;;;4391833;32;20233;-72
2021/01/17 05:12:41;;;;;;;36.10;10.60;;;;;;;;;;4391622;32;20166;-71
2021/01/17 05:15:10;;;;;;;32.93;9.93;;;;;;;;;;4343930;33;20155;-72
2021/01/17 05:17:39;;;;;;;43.63;10.00;;;;;;;;;;4394218;32;20173;-72
2021/01/17 05:20:08;;;;;;;34.97;8.03;;;;;;;;;;4391682;32;20248;-72
2021/01/17 05:22:34;;;;;;;39.40;7.40;;;;;;;;;;4405837;32;20687;-72
2021/01/17 05:25:06;;;;;;;29.67;6.07;;;;;;;;;;4406032;32;20142;-72
2021/01/17 05:27:32;;;;;;;30.93;5.57;;;;;;;;;;4392235;32;20151;-72
2021/01/17 05:31:17;;;;;;;36.73;5.67;;;;;;;;;;4391895;32;20221;-72
2021/01/17 05:33:28;;;;;;;36.00;4.63;;;;;;;;;;4380235;32;20166;-72
2021/01/17 05:36:14;;;;;;;29.20;4.57;;;;;;;;;;4391310;32;20701;-72
2021/01/17 05:39:24;;;;;;;40.20;4.97;;;;;;;;;;4390274;32;20576;-72
2021/01/17 05:41:25;;;;;;;31.17;5.03;;;;;;;;;;4384449;32;20246;-72
2021/01/17 05:44:03;;;;;;;;;;;;;;;;;;;;;
2021/01/17 05:46:29;;;;;;;33.83;4.83;;;;;;;;;;4386741;32;20527;-72
2021/01/17 05:49:13;;;;;;;35.00;5.17;;;;;;;;;;4390043;32;20147;-72
2021/01/17 05:51:38;;;;;;;24.17;4.47;;;;;;;;;;4389894;32;20216;-72
2021/01/17 05:54:09;;;;;;;34.30;5.13;;;;;;;;;;4391434;32;20178;-72
2021/01/17 05:56:36;;;;;;;28.67;4.87;;;;;;;;;;4390121;32;20150;-72
2021/01/17 05:59:02;;;;;;;24.37;4.77;;;;;;;;;;4389744;32;20201;-73
2021/01/17 06:01:27;;;;;;;31.97;5.13;;;;;;;;;;4390414;32;20146;-72
2021/01/17 06:03:54;;;;;;;34.97;4.80;;;;;;;;;;4376635;32;20201;-72
2021/01/17 06:06:36;;;;;;;36.03;5.17;;;;;;;;;;4389593;32;20610;-72
2021/01/17 06:09:03;;;;;;;28.53;4.67;;;;;;;;;;4390885;32;20165;-72
2021/01/17 06:11:30;;;;;;;25.90;4.07;;;;;;;;;;4390308;32;20146;-72
2021/01/17 06:13:57;;;;;;;46.23;5.27;;;;;;;;;;4376300;32;20189;-72
2021/01/17 06:16:25;;;;;;;35.00;4.60;;;;;;;;;;4389805;32;20198;-72
2021/01/17 06:18:55;;;;;;;30.47;4.80;;;;;;;;;;4389876;32;20188;-72
2021/01/17 06:21:40;;;;;;;;;;;;;;;;;;;;;
2021/01/17 06:24:10;;;;;;;26.93;4.07;;;;;;;;;;4375187;32;20162;-73
2021/01/17 06:26:39;;;;;;;35.00;4.77;;;;;;;;;;4374723;32;20144;-72
2021/01/17 06:29:17;;;;;;;31.47;5.40;;;;;;;;;;4374823;32;20135;-72
2021/01/17 06:31:52;;;;;;;;;;;;;;;;;;;;;
2021/01/17 06:34:19;;;;;;;27.13;4.27;;;;;;;;;;4369030;32;20494;-73
2021/01/17 06:36:48;;;;;;;29.03;5.20;;;;;;;;;;4396566;32;20159;-73
2021/01/17 06:39:28;;;;;;;27.13;4.23;;;;;;;;;;4407585;32;20270;-73
2021/01/17 06:41:57;;;;;;;30.60;4.07;;;;;;;;;;4408151;32;20572;-73
2021/01/17 06:50:35;;;;;;;;;;;;;;;;;;;;;
2021/01/17 06:53:01;;;;;;;20.43;3.83;;;;;;;;;;4408042;32;20138;-72
2021/01/17 06:55:42;;;;;;;22.73;3.87;;;;;;;;;;4393568;32;20181;-72
2021/01/17 06:58:33;;;;;;;29.63;4.67;;;;;;;;;;4330783;33;20182;-73
2021/01/17 07:01:21;;;;;;;27.50;4.67;;;;;;;;;;4331348;33;20166;-74
2021/01/17 07:04:25;;;;;;;25.30;3.87;;;;;;;;;;4312015;33;20221;-72
2021/01/17 07:07:10;;;;;;;25.93;4.47;;;;;;;;;;4320182;33;20241;-73
2021/01/17 07:09:59;;;;;;;32.17;5.37;;;;;;;;;;4318180;33;20179;-73
2021/01/17 07:12:46;;;;;;;28.23;4.43;;;;;;;;;;4348423;32;20566;-73
2021/01/17 07:15:12;;;;;;;25.17;5.03;;;;;;;;;;4379202;32;20591;-73
2021/01/17 07:17:39;;;;;;;25.00;5.17;;;;;;;;;;4392675;32;20215;-73
2021/01/17 07:20:27;;;;;;;29.10;4.97;;;;;;;;;;4392124;32;20174;-73
2021/01/17 07:22:53;;;;;;;27.10;4.67;;;;;;;;;;4392377;32;20165;-73
2021/01/17 07:25:21;;;;;;;27.47;4.67;;;;;;;;;;4391810;32;20134;-72
2021/01/17 07:28:05;;;;;;;28.77;4.50;;;;;;;;;;4391661;32;20181;-72
2021/01/17 07:33:39;;;;;;;35.73;4.87;;;;;;;;;;4407085;32;20238;-72
2021/01/17 07:36:05;;;;;;;27.00;4.97;;;;;;;;;;4406671;32;20131;-73
2021/01/17 07:38:45;;;;;;;;;;;;;;;;;;;;;
2021/01/17 07:41:29;;;;;;;26.77;5.10;;;;;;;;;;4407562;32;20181;-72
2021/01/17 07:46:44;;;;;;;27.33;4.60;;;;;;;;;;4407394;32;20182;-72
2021/01/17 07:49:10;;;;;;;27.43;5.03;;;;;;;;;;4406745;32;20491;-73
2021/01/17 07:51:35;;;;;;;30.57;5.07;;;;;;;;;;4378974;32;20243;-72
2021/01/17 07:54:19;;;;;;;28.40;5.33;;;;;;;;;;4378002;32;20572;-72
2021/01/17 07:56:46;;;;;;;32.30;7.03;;;;;;;;;;4391652;32;20142;-73
2021/01/17 07:59:11;;;;;;;29.53;5.67;;;;;;;;;;4377842;32;20197;-74
2021/01/17 08:01:56;;;;;;;31.97;5.07;;;;;;;;;;4378124;32;20229;-73
2021/01/17 08:04:22;;;;;;;34.43;5.77;;;;;;;;;;4394336;32;20154;-73
2021/01/17 08:06:48;;;;;;;28.43;5.80;;;;;;;;;;4391279;32;20138;-72
2021/01/17 08:09:38;;;;;;;28.73;4.63;;;;;;;;;;4391217;32;20170;-72
2021/01/17 08:12:17;;;;;;;33.23;5.77;;;;;;;;;;4391783;32;20173;-72
2021/01/17 08:14:42;;;;;;;29.43;4.63;;;;;;;;;;4388885;32;20154;-73
2021/01/17 08:17:12;;;;;;;28.87;5.03;;;;;;;;;;4377381;32;20272;-72
2021/01/17 08:19:39;;;;;;;25.83;4.40;;;;;;;;;;4391183;32;20142;-72
2021/01/17 08:22:17;;;;;;;23.53;4.90;;;;;;;;;;4391065;32;20557;-72
2021/01/17 08:24:58;;;;;;;30.70;5.27;;;;;;;;;;4378417;32;20170;-72
2021/01/17 08:27:30;;;;;;;22.27;4.10;;;;;;;;;;4391172;32;20141;-72
2021/01/17 08:30:22;;;;;;;22.20;4.00;;;;;;;;;;4393287;32;20180;-72
2021/01/17 08:32:55;;;;;;;20.10;4.53;;;;;;;;;;4405117;32;20571;-73
2021/01/17 08:35:23;;;;;;;20.70;4.07;;;;;;;;;;4405136;32;20214;-73
2021/01/17 08:37:57;;;;;;;19.63;3.93;;;;;;;;;;4394961;32;20188;-72
2021/01/17 08:40:28;;;;;;;24.90;4.57;;;;;;;;;;4390453;32;20192;-73
2021/01/17 08:43:00;;;;;;;25.63;4.03;;;;;;;;;;4362168;32;20221;-72
2021/01/17 08:45:39;;;;;;;20.63;4.10;;;;;;;;;;4375826;32;20151;-72
2021/01/17 08:48:14;;;;;;;31.43;5.67;;;;;;;;;;4375332;32;20146;-72
2021/01/17 08:50:45;;;;;;;30.10;5.33;;;;;;;;;;4376134;32;20164;-72
2021/01/17 08:53:11;;;;;;;28.90;5.00;;;;;;;;;;4375853;32;20147;-71
2021/01/17 08:55:53;;;;;;;28.27;5.33;;;;;;;;;;4375207;32;20139;-71
2021/01/17 08:58:34;;;;;;;;;;;;;;;;;;;;;
2021/01/17 09:01:00;;;;;;;31.60;4.77;;;;;;;;;;4371395;32;20154;-72
2021/01/17 09:03:35;;;;;;;23.50;4.93;;;;;;;;;;4383165;32;20142;-72
2021/01/17 09:06:04;;;;;;;26.57;4.80;;;;;;;;;;4390918;32;20167;-73
2021/01/17 09:08:30;;;;;;;33.97;6.20;;;;;;;;;;4390355;32;20146;-72
2021/01/17 09:10:56;;;;;;;26.93;5.47;;;;;;;;;;4390357;32;20192;-72
2021/01/17 09:13:22;;;;;;;27.77;4.60;;;;;;;;;;4390395;32;20146;-73
2021/01/17 09:15:56;;;;;;;25.17;5.00;;;;;;;;;;4377259;32;20562;-73
2021/01/17 09:18:23;;;;;;;24.90;4.80;;;;;;;;;;4390785;32;20567;-72
2021/01/17 09:20:49;;;;;;;29.60;4.90;;;;;;;;;;4390606;32;20544;-73
2021/01/17 09:23:16;;;;;;;29.47;4.73;;;;;;;;;;4389940;32;20576;-72
2021/01/17 09:25:41;;;;;;;25.87;5.53;;;;;;;;;;4377027;32;20216;-72
2021/01/17 09:28:10;;;;;;;31.40;5.67;;;;;;;;;;4389838;32;20197;-72
2021/01/17 09:30:35;;;;;;;25.67;4.37;;;;;;;;;;4390624;32;20181;-72
2021/01/17 09:33:01;;;;;;;20.80;4.40;;;;;;;;;;4389690;32;20131;-72
2021/01/17 09:35:32;;;;;;;30.77;5.23;;;;;;;;;;4390660;32;20146;-73
2021/01/17 09:38:02;;;;;;;20.33;4.17;;;;;;;;;;4376255;32;20178;-72
2021/01/17 09:40:27;;;;;;;26.80;4.77;;;;;;;;;;4376883;32;20162;-74
2021/01/17 09:42:53;;;;;;;26.37;4.43;;;;;;;;;;4376558;32;20478;-73
2021/01/17 09:45:18;;;;;;;24.00;4.10;;;;;;;;;;4390163;32;20559;-74
2021/01/17 09:47:44;;;;;;;25.43;4.43;;;;;;;;;;4376534;32;20194;-74
2021/01/17 09:50:12;;;;;;;20.63;4.20;;;;;;;;;;4376034;32;20202;-74
2021/01/17 09:52:38;;;;;;;31.17;5.07;;;;;;;;;;4376014;32;20193;-73
2021/01/17 09:55:06;;;;;;;20.57;4.10;;;;;;;;;;4362190;32;20256;-73
2021/01/17 09:57:35;;;;;;;35.60;5.13;;;;;;;;;;4374634;32;20606;-74
2021/01/17 10:00:00;;;;;;;21.80;4.30;;;;;;;;;;4375510;32;20165;-74
2021/01/17 10:02:27;;;;;;;23.83;4.13;;;;;;;;;;4375080;32;20139;-74
2021/01/17 10:04:56;;;;;;;18.67;3.80;;;;;;;;;;4374416;32;20174;-74
2021/01/17 10:08:01;;;;;;;21.40;3.73;;;;;;;;;;4381154;32;20193;-74
2021/01/17 10:10:29;;;;;;;25.43;4.07;;;;;;;;;;4360857;32;20669;-76
2021/01/17 10:13:00;;;;;;;27.10;4.50;;;;;;;;;;4374393;32;20214;-74
2021/01/17 10:15:25;;;;;;;21.53;4.27;;;;;;;;;;4392658;32;20552;-74
2021/01/17 10:17:54;;;;;;;32.63;4.37;;;;;;;;;;4393018;32;20146;-74
2021/01/17 10:20:26;;;;;;;23.27;3.62;;;;;;;;;;4378561;32;20227;-74
2021/01/17 10:23:19;;;;;;;23.27;4.40;;;;;;;;;;4378657;32;20532;-74
2021/01/17 10:25:45;;;;;;;19.53;3.60;;;;;;;;;;4399037;32;20142;-74
2021/01/17 10:28:14;;;;;;;25.37;4.20;;;;;;;;;;4386666;32;20169;-73
2021/01/17 10:30:43;;;;;;;23.17;3.27;;;;;;;;;;4391505;32;20564;-74
2021/01/17 10:33:10;;;;;;;15.70;2.47;;;;;;;;;;4391183;32;20158;-75
2021/01/17 10:35:36;;;;;;;21.50;3.43;;;;;;;;;;4392878;32;20146;-73
2021/01/17 10:38:02;;;;;;;13.33;2.23;;;;;;;;;;4384523;32;20178;-73
2021/01/17 10:40:31;;;;;;;20.70;2.47;;;;;;;;;;4389965;32;20189;-74
2021/01/17 10:43:06;;;;;;;11.00;2.50;;;;;;;;;;4382942;32;20165;-74
2021/01/17 10:45:36;;;;;;;16.23;2.77;;;;;;;;;;4379094;32;20154;-73
2021/01/17 10:48:27;;;;;;;;;;;;;;;;;;;;;
2021/01/17 10:50:58;;;;;;;16.57;4.07;;;;;;;;;;4391969;32;20146;-74
2021/01/17 10:53:27;;;;;;;11.87;2.00;;;;;;;;;;4386898;32;20265;-75
2021/01/17 10:55:54;;;;;;;14.60;2.30;;;;;;;;;;4408532;32;20165;-74
2021/01/17 10:58:27;;;;;;;10.63;2.20;;;;;;;;;;4395260;32;20229;-74
2021/01/17 11:00:56;;;;;;;12.47;1.90;;;;;;;;;;4393186;32;20174;-74
2021/01/17 11:03:28;;;;;;;13.87;2.47;;;;;;;;;;4406634;32;20146;-73
2021/01/17 11:06:11;;;;;;;11.83;1.90;;;;;;;;;;4393147;32;20206;-74
2021/01/17 11:09:05;;;;;;;8.63;1.80;;;;;;;;;;4381190;32;20208;-75
2021/01/17 11:11:41;;;;;;;10.37;2.03;;;;;;;;;;4407074;32;20130;-74
2021/01/17 11:14:06;;;;;;;10.13;2.23;;;;;;;;;;4394471;32;20142;-73
2021/01/17 11:16:41;;;;;;;9.33;2.13;;;;;;;;;;4401216;32;20173;-73
2021/01/17 11:19:07;;;;;;;11.03;2.03;;;;;;;;;;4391854;32;20247;-74
2021/01/17 11:21:33;;;;;;;14.07;2.20;;;;;;;;;;4392846;32;20161;-75
2021/01/17 11:23:58;;;;;;;10.93;2.22;;;;;;;;;;4406524;32;20334;-75
2021/01/17 11:26:24;;;;;;;8.47;2.10;;;;;;;;;;4396411;32;20713;-73
2021/01/17 11:28:50;;;;;;;13.10;2.57;;;;;;;;;;4411040;32;20145;-73
2021/01/17 11:31:16;;;;;;;10.77;2.10;;;;;;;;;;4392604;32;20165;-73
2021/01/17 11:33:42;;;;;;;13.43;1.77;;;;;;;;;;4406677;32;20146;-73
2021/01/17 11:36:07;;;;;;;12.30;1.80;;;;;;;;;;4392680;32;20530;-74
2021/01/17 11:38:50;;;;;;;11.30;2.10;;;;;;;;;;4406430;32;20165;-73
2021/01/17 11:41:16;;;;;;;10.88;2.37;;;;;;;;;;4392632;32;20170;-73
2021/01/17 11:43:42;;;;;;;11.80;1.65;;;;;;;;;;4392273;32;20517;-74
2021/01/17 11:46:08;;;;;;;12.27;1.90;;;;;;;;;;4406111;32;20188;-73
2021/01/17 11:48:34;;;;;;;9.75;1.65;;;;;;;;;;4406490;32;20350;-73
2021/01/17 11:50:59;;;;;;;13.05;1.90;;;;;;;;;;4392869;32;20575;-74
2021/01/17 11:53:25;;;;;;;12.35;1.60;;;;;;;;;;4392356;32;20226;-75
2021/01/17 11:55:50;;;;;;;12.50;1.98;;;;;;;;;;4392323;32;20179;-74
2021/01/17 11:58:16;;;;;;;13.80;1.90;;;;;;;;;;4392403;32;20169;-74
2021/01/17 12:00:45;;;;;;;7.22;1.90;;;;;;;;;;4406458;32;20149;-75
2021/01/17 12:03:11;;;;;;;9.90;2.12;;;;;;;;;;4396934;32;20704;-75
2021/01/17 12:05:36;;;;;;;9.88;1.87;;;;;;;;;;4421400;32;20192;-74
2021/01/17 12:08:02;;;;;;;10.43;1.58;;;;;;;;;;4406817;32;20143;-74
2021/01/17 12:10:27;;;;;;;13.10;1.92;;;;;;;;;;4406728;32;20133;-75
2021/01/17 12:12:53;;;;;;;8.60;1.73;;;;;;;;;;4409136;32;20180;-75
2021/01/17 12:15:18;;;;;;;8.50;1.80;;;;;;;;;;4407431;32;20187;-74
2021/01/17 12:17:43;;;;;;;12.88;2.00;;;;;;;;;;4421341;32;20637;-74
2021/01/17 12:20:09;;;;;;;10.73;2.05;;;;;;;;;;4420687;32;20185;-74
2021/01/17 12:22:34;;;;;;;8.73;1.60;;;;;;;;;;4401707;32;20632;-73
2021/01/17 12:24:59;;;;;;;11.12;2.20;;;;;;;;;;4395490;32;20193;-71
2021/01/17 12:27:25;;;;;;;12.30;2.25;;;;;;;;;;4404864;32;20146;-74
2021/01/17 12:29:50;;;;;;;13.25;2.37;;;;;;;;;;4391676;32;20548;-74
2021/01/17 12:32:15;;;;;;;11.20;2.28;;;;;;;;;;4403627;32;20177;-74
2021/01/17 12:34:41;;;;;;;9.10;2.03;;;;;;;;;;4420350;32;20190;-73
2021/01/17 12:37:06;;;;;;;12.02;2.15;;;;;;;;;;4420658;32;20149;-72
2021/01/17 12:39:31;;;;;;;9.10;1.97;;;;;;;;;;4420191;32;20141;-73
2021/01/17 12:41:58;;;;;;;10.75;1.98;;;;;;;;;;4420828;32;20237;-74
2021/01/17 12:44:24;;;;;;;17.23;2.30;;;;;;;;;;4420385;32;20203;-74
2021/01/17 12:46:49;;;;;;;12.43;2.08;;;;;;;;;;4406035;32;20173;-75
2021/01/17 12:49:15;;;;;;;11.02;2.12;;;;;;;;;;4405122;32;20228;-75
2021/01/17 12:51:41;;;;;;;12.85;2.50;;;;;;;;;;4405453;32;20577;-76
2021/01/17 12:54:06;;;;;;;14.98;3.00;;;;;;;;;;4408477;32;20150;-74
2021/01/17 12:56:31;;;;;;;9.77;2.03;;;;;;;;;;4388244;32;20507;-74
2021/01/17 12:58:57;;;;;;;8.60;1.62;;;;;;;;;;4393432;32;20165;-74
2021/01/17 13:01:22;;;;;;;15.98;2.10;;;;;;;;;;4390377;32;20456;-74
2021/01/17 13:03:48;;;;;;;13.50;2.28;;;;;;;;;;4376375;32;20220;-73
2021/01/17 13:06:14;;;;;;;14.23;2.33;;;;;;;;;;4389559;32;20150;-74
2021/01/17 13:08:40;;;;;;;15.73;2.65;;;;;;;;;;4390175;32;20556;-73
2021/01/17 13:11:06;;;;;;;14.87;1.58;;;;;;;;;;4389440;32;20185;-74
2021/01/17 13:13:32;;;;;;;15.20;2.10;;;;;;;;;;4378097;32;20244;-75
2021/01/17 13:15:58;;;;;;;12.27;2.15;;;;;;;;;;4409846;32;20149;-74
2021/01/17 13:18:24;;;;;;;11.82;2.15;;;;;;;;;;4419718;32;20177;-74
2021/01/17 13:20:57;;;;;;;16.80;2.58;;;;;;;;;;4416333;32;20184;-75
2021/01/17 13:23:25;;;;;;;10.03;2.50;;;;;;;;;;4404793;32;20146;-74
2021/01/17 13:25:50;;;;;;;17.03;2.20;;;;;;;;;;4415067;32;20212;-71
2021/01/17 13:28:16;;;;;;;12.45;2.47;;;;;;;;;;4404836;32;20627;-74
2021/01/17 13:30:42;;;;;;;17.58;2.90;;;;;;;;;;4390699;32;20284;-73
2021/01/17 13:33:13;;;;;;;16.37;2.30;;;;;;;;;;4404550;32;20497;-73
2021/01/17 13:35:39;;;;;;;14.60;2.05;;;;;;;;;;4405355;32;20149;-75
2021/01/17 13:38:05;;;;;;;17.85;2.85;;;;;;;;;;4391235;32;20212;-73
2021/01/17 13:40:30;;;;;;;17.60;2.73;;;;;;;;;;4404331;32;20547;-75
2021/01/17 13:42:55;;;;;;;16.02;2.72;;;;;;;;;;4404594;32;20134;-74
2021/01/17 13:45:21;;;;;;;13.43;2.72;;;;;;;;;;4404723;32;20176;-74
2021/01/17 13:47:46;;;;;;;19.40;2.60;;;;;;;;;;4408665;32;20214;-71
2021/01/17 13:50:12;;;;;;;17.65;2.17;;;;;;;;;;4416507;32;20564;-74
2021/01/17 13:52:43;;;;;;;14.02;2.55;;;;;;;;;;4420284;32;20160;-72
2021/01/17 13:55:09;;;;;;;17.98;2.90;;;;;;;;;;4419644;32;20137;-73
2021/01/17 13:57:44;;;;;;;15.25;2.25;;;;;;;;;;4406241;32;20180;-73
2021/01/17 14:00:11;;;;;;;14.10;2.12;;;;;;;;;;4404822;32;20152;-74
2021/01/17 14:02:36;;;;;;;14.13;2.22;;;;;;;;;;4391035;32;20162;-74
2021/01/17 14:05:02;;;;;;;15.07;2.30;;;;;;;;;;4403701;32;20202;-76
2021/01/17 14:07:30;;;;;;;24.25;3.25;;;;;;;;;;4402345;32;20321;-74
2021/01/17 14:09:56;;;;;;;16.23;2.55;;;;;;;;;;4404795;32;20173;-71
2021/01/17 14:12:21;;;;;;;18.10;2.70;;;;;;;;;;4404867;32;20138;-73
2021/01/17 14:14:46;;;;;;;17.42;2.62;;;;;;;;;;4390249;32;20509;-74
2021/01/17 14:17:14;;;;;;;15.23;2.37;;;;;;;;;;4397225;32;20567;-74
2021/01/17 14:19:39;;;;;;;17.17;2.70;;;;;;;;;;4404256;32;20150;-72
2021/01/17 14:22:18;;;;;;;;;;;;;;;;;;;;;
2021/01/17 14:24:49;;;;;;;14.93;1.95;;;;;;;;;;4387238;32;20208;-75
2021/01/17 14:27:14;;;;;;;14.02;2.85;;;;;;;;;;4395643;32;20220;-73
2021/01/17 14:29:39;;;;;;;13.30;2.42;;;;;;;;;;4403224;32;20483;-74
2021/01/17 14:32:04;;;;;;;15.48;2.53;;;;;;;;;;4396273;32;20484;-74
2021/01/17 14:34:30;;;;;;;11.12;2.40;;;;;;;;;;4399975;32;20146;-72
2021/01/17 14:36:55;;;;;;;13.23;2.40;;;;;;;;;;4403768;32;20627;-74
2021/01/17 14:39:22;;;;;;;16.87;2.67;;;;;;;;;;4401694;32;20138;-74
2021/01/17 14:41:51;;;;;;;13.55;2.12;;;;;;;;;;4389016;32;20586;-74
2021/01/17 14:44:16;;;;;;;14.70;1.98;;;;;;;;;;4377210;32;20138;-73
2021/01/17 14:46:42;;;;;;;17.08;2.28;;;;;;;;;;4360491;32;20208;-74
2021/01/17 14:49:08;;;;;;;13.40;2.10;;;;;;;;;;4373847;32;20200;-74
2021/01/17 14:51:34;;;;;;;15.65;3.05;;;;;;;;;;4374110;32;20138;-74
2021/01/17 14:54:00;;;;;;;11.45;2.22;;;;;;;;;;4374581;32;20157;-75
2021/01/17 14:56:45;;;;;;;14.00;2.67;;;;;;;;;;4391470;32;20157;-73
2021/01/17 14:59:12;;;;;;;17.52;2.28;;;;;;;;;;4389668;32;20192;-74
2021/01/17 15:01:45;;;;;;;14.65;3.33;;;;;;;;;;4391955;32;20154;-73
2021/01/17 15:04:10;;;;;;;20.52;2.37;;;;;;;;;;4384548;32;20654;-74
2021/01/17 15:06:39;;;;;;;15.83;2.40;;;;;;;;;;4392061;32;20134;-74
2021/01/17 15:09:07;;;;;;;16.58;2.53;;;;;;;;;;4387836;32;20181;-72
2021/01/17 15:14:33;;;;;;;20.23;2.80;;;;;;;;;;4329637;33;20162;-74
2021/01/17 15:16:58;;;;;;;19.90;2.80;;;;;;;;;;4317618;33;20186;-74
2021/01/17 15:19:23;;;;;;;21.33;3.53;;;;;;;;;;4352068;32;20555;-73
2021/01/17 15:21:52;;;;;;;18.93;2.87;;;;;;;;;;4377006;32;20559;-73
2021/01/17 15:24:33;;;;;;;11.70;2.07;;;;;;;;;;4376413;32;20477;-75
2021/01/17 15:26:58;;;;;;;15.40;3.23;;;;;;;;;;4376194;32;20143;-73
2021/01/17 15:29:24;;;;;;;18.80;2.50;;;;;;;;;;4389128;32;20251;-74
2021/01/17 15:31:54;;;;;;;16.13;2.50;;;;;;;;;;4391609;32;20208;-74
2021/01/17 15:34:19;;;;;;;16.37;3.03;;;;;;;;;;4378303;32;20537;-75
2021/01/17 15:37:01;;;;;;;15.20;3.07;;;;;;;;;;4391855;32;20202;-73
2021/01/17 15:39:26;;;;;;;13.07;2.00;;;;;;;;;;4392304;32;20170;-74
2021/01/17 15:41:54;;;;;;;12.10;2.33;;;;;;;;;;4406477;32;20582;-73
2021/01/17 15:44:22;;;;;;;17.93;2.87;;;;;;;;;;4393183;32;20177;-75
2021/01/17 15:46:47;;;;;;;16.13;3.20;;;;;;;;;;4392327;32;20166;-74
2021/01/17 15:49:13;;;;;;;13.17;2.33;;;;;;;;;;4406543;32;20139;-73
2021/01/17 15:51:39;;;;;;;15.70;3.20;;;;;;;;;;4406136;32;20575;-73
2021/01/17 15:54:04;;;;;;;13.67;3.47;;;;;;;;;;4392462;32;20234;-73
2021/01/17 15:56:32;;;;;;;19.20;4.03;;;;;;;;;;4392713;32;20177;-74
2021/01/17 15:58:58;;;;;;;19.67;4.07;;;;;;;;;;4406054;32;20151;-73
2021/01/17 16:01:26;;;;;;;14.63;2.80;;;;;;;;;;4406505;32;20227;-74
2021/01/17 16:03:51;;;;;;;14.33;2.90;;;;;;;;;;4391655;32;20181;-75
2021/01/17 16:06:18;;;;;;;19.97;2.70;;;;;;;;;;4391883;32;20192;-74
2021/01/17 16:08:43;;;;;;;21.97;3.00;;;;;;;;;;4392745;32;20224;-74
2021/01/17 16:11:08;;;;;;;16.47;3.13;;;;;;;;;;4406222;32;20150;-74
2021/01/17 16:13:34;;;;;;;23.73;3.10;;;;;;;;;;4392190;32;20258;-74
2021/01/17 16:15:59;;;;;;;18.13;2.93;;;;;;;;;;4392069;32;20158;-74
2021/01/17 16:18:28;;;;;;;19.87;3.20;;;;;;;;;;4380986;32;20592;-75
2021/01/17 16:20:53;;;;;;;19.77;3.03;;;;;;;;;;4376753;32;20167;-73
2021/01/17 16:23:18;;;;;;;19.00;3.10;;;;;;;;;;4399686;32;20142;-74
2021/01/17 16:25:43;;;;;;;16.37;3.63;;;;;;;;;;4378216;32;20308;-74